Hansen Hills, California
Current Conditions -  °F | °C
As of 7:51 AM on Friday 19 Dec 2014 (Local Time) from KVNY Reporting Station
Clear Clear  
Wind Chill: 47°   Ceiling: Unl
Heat Index: 47°   Visibility: 10mi
Dew Point: 43°   Wind: 3mph
Humidity: 86%   Direction: 180°S
Pressure: 30.21"   Gusts: NA
Location:  34.2561°N, 118.42°W
Report Text: KVNY 191551Z 18003KT 10SM CLR 08/06 A3021 RMK AO2 SLP230 T00830061
Loading
Personal Weather Stations






























Interactive Weather Map New forecast layout! Learn more

10-Day Weather Forecast

Advertisements
Track Severe Weather on mobile